createdAt,value
2018-05-12T00:00:41.855Z,16.30
2018-05-12T00:03:10.156Z,15.60
2018-05-12T00:05:38.553Z,16.90
2018-05-12T00:08:07.743Z,16.10
2018-05-12T00:10:37.019Z,17.13
2018-05-12T00:13:05.438Z,17.20
2018-05-12T00:15:33.788Z,17.07
2018-05-12T00:18:02.942Z,16.60
2018-05-12T00:20:31.371Z,19.27
2018-05-12T00:22:59.632Z,17.20
2018-05-12T00:25:27.998Z,18.93
2018-05-12T00:27:57.225Z,17.13
2018-05-12T00:30:25.725Z,17.97
2018-05-12T00:32:54.103Z,17.43
2018-05-12T00:35:22.536Z,18.17
2018-05-12T00:37:51.603Z,18.47
2018-05-12T00:40:20.163Z,19.50
2018-05-12T00:42:48.592Z,19.47
2018-05-12T00:45:16.996Z,17.53
2018-05-12T00:47:46.256Z,19.60
2018-05-12T00:50:14.668Z,16.47
2018-05-12T00:52:43.752Z,17.50
2018-05-12T00:55:12.116Z,18.20
2018-05-12T00:57:41.336Z,17.30
2018-05-12T01:00:09.687Z,17.90
2018-05-12T01:02:38.120Z,18.40
2018-05-12T01:05:06.419Z,18.83
2018-05-12T01:07:34.780Z,18.70
2018-05-12T01:10:03.354Z,18.50
2018-05-12T01:12:31.839Z,19.27
2018-05-12T01:15:00.951Z,18.67
2018-05-12T01:17:30.041Z,17.20
2018-05-12T01:19:58.462Z,19.80
2018-05-12T01:22:27.002Z,18.10
2018-05-12T01:24:55.421Z,18.87
2018-05-12T01:27:25.376Z,18.40
2018-05-12T01:29:54.497Z,19.90
2018-05-12T01:32:22.975Z,19.20
2018-05-12T01:34:51.381Z,18.40
2018-05-12T01:37:19.858Z,20.03
2018-05-12T01:39:48.291Z,18.57
2018-05-12T01:42:16.634Z,21.50
2018-05-12T01:44:45.016Z,18.60
2018-05-12T01:47:13.336Z,21.27
2018-05-12T01:49:41.681Z,18.60
2018-05-12T01:52:10.138Z,21.03
2018-05-12T01:54:38.558Z,18.30
2018-05-12T01:57:06.937Z,17.93
2018-05-12T01:59:35.342Z,20.70
2018-05-12T02:02:04.391Z,19.40
2018-05-12T02:04:32.793Z,19.03
2018-05-12T02:07:01.281Z,19.30
2018-05-12T02:09:29.857Z,17.87
2018-05-12T02:11:59.248Z,20.83
2018-05-12T02:14:27.598Z,19.73
2018-05-12T02:16:56.857Z,20.80
2018-05-12T02:19:25.288Z,19.97
2018-05-12T02:21:53.695Z,19.20
2018-05-12T02:24:22.169Z,18.90
2018-05-12T02:26:50.462Z,20.47
2018-05-12T02:29:18.795Z,20.07
2018-05-12T02:31:47.239Z,19.07
2018-05-12T02:34:15.668Z,20.73
2018-05-12T02:36:44.079Z,19.47
2018-05-12T02:39:12.432Z,21.17
2018-05-12T02:41:40.933Z,18.67
2018-05-12T02:44:10.081Z,19.73
2018-05-12T02:46:38.486Z,20.70
2018-05-12T02:49:06.882Z,18.90
2018-05-12T02:51:35.977Z,19.17
2018-05-12T02:54:04.356Z,18.60
2018-05-12T02:56:32.888Z,18.10
2018-05-12T02:59:01.201Z,19.53
2018-05-12T03:01:29.581Z,19.90
2018-05-12T03:03:58.890Z,18.80
2018-05-12T03:06:28.114Z,20.80
2018-05-12T03:08:56.679Z,20.87
2018-05-12T03:11:25.767Z,20.33
2018-05-12T03:13:55.011Z,19.33
2018-05-12T03:16:23.397Z,18.20
2018-05-12T03:18:51.723Z,19.23
2018-05-12T03:21:20.083Z,19.13
2018-05-12T03:23:48.456Z,19.17
2018-05-12T03:26:16.783Z,18.83
2018-05-12T03:28:45.240Z,17.60
2018-05-12T03:31:13.604Z,18.17
2018-05-12T03:33:41.910Z,17.97
2018-05-12T03:36:10.304Z,19.50
2018-05-12T03:38:39.564Z,17.10
2018-05-12T03:41:07.908Z,18.20
2018-05-12T03:43:36.231Z,19.03
2018-05-12T03:46:04.634Z,18.33
2018-05-12T03:48:33.094Z,18.80
2018-05-12T03:51:01.469Z,18.00
2018-05-12T03:53:30.684Z,17.70
2018-05-12T03:55:59.137Z,18.47
2018-05-12T03:58:27.489Z,18.00
2018-05-12T04:00:55.848Z,16.97
2018-05-12T04:03:24.286Z,18.87
2018-05-12T04:06:04.638Z,17.60
2018-05-12T04:11:44.089Z,17.17
2018-05-12T04:14:12.431Z,18.53
2018-05-12T04:16:40.816Z,17.10
2018-05-12T04:19:09.282Z,16.57
2018-05-12T04:21:37.585Z,17.63
2018-05-12T04:24:05.973Z,18.20
2018-05-12T04:26:34.384Z,19.13
2018-05-12T04:29:03.508Z,19.60
2018-05-12T04:31:31.763Z,18.87
2018-05-12T04:34:00.168Z,18.43
2018-05-12T04:36:28.590Z,19.23
2018-05-12T04:38:57.729Z,19.43
2018-05-12T04:41:26.973Z,17.93
2018-05-12T04:43:56.323Z,21.17
2018-05-12T04:46:24.695Z,17.30
2018-05-12T04:48:53.259Z,18.80
2018-05-12T04:51:22.352Z,20.70
2018-05-12T04:53:50.955Z,19.90
2018-05-12T04:56:19.266Z,19.50
2018-05-12T04:58:47.631Z,20.83
2018-05-12T05:01:15.982Z,27.47
2018-05-12T05:03:45.263Z,19.93
2018-05-12T05:06:14.539Z,20.83
2018-05-12T05:08:42.856Z,20.50
2018-05-12T05:11:11.943Z,20.27
2018-05-12T05:13:41.005Z,21.13
2018-05-12T05:16:09.292Z,17.70
2018-05-12T05:18:37.627Z,19.67
2018-05-12T05:21:05.930Z,19.97
2018-05-12T05:23:34.198Z,18.37
2018-05-12T05:26:02.493Z,19.17
2018-05-12T05:28:30.788Z,18.73
2018-05-12T05:30:59.091Z,19.47
2018-05-12T05:33:27.388Z,18.40
2018-05-12T05:35:55.703Z,18.60
2018-05-12T05:38:23.983Z,20.77
2018-05-12T05:40:52.286Z,21.90
2018-05-12T05:43:21.458Z,17.37
2018-05-12T05:45:49.770Z,19.10
2018-05-12T05:48:18.804Z,18.70
2018-05-12T05:50:47.177Z,17.87
2018-05-12T05:53:15.451Z,19.97
2018-05-12T05:55:43.731Z,17.97
2018-05-12T05:58:12.047Z,19.60
2018-05-12T06:00:40.342Z,20.30
2018-05-12T06:03:09.376Z,18.03
2018-05-12T06:05:37.687Z,18.37
2018-05-12T06:08:07.524Z,18.70
2018-05-12T06:10:35.840Z,19.97
2018-05-12T06:13:04.133Z,18.37
2018-05-12T06:15:32.423Z,19.20
2018-05-12T06:18:01.619Z,18.87
2018-05-12T06:20:30.589Z,18.23
2018-05-12T06:22:58.880Z,16.80
2018-05-12T06:25:28.715Z,18.77
2018-05-12T06:27:58.564Z,15.97
2018-05-12T06:30:26.916Z,23.53
2018-05-12T06:32:55.192Z,25.83
2018-05-12T06:35:24.235Z,16.27
2018-05-12T06:37:52.564Z,18.43
2018-05-12T06:40:21.636Z,18.13
2018-05-12T06:42:49.956Z,16.13
2018-05-12T06:45:18.232Z,17.63
2018-05-12T06:47:46.522Z,17.43
2018-05-12T06:50:14.825Z,15.50
2018-05-12T06:52:43.196Z,18.50
2018-05-12T06:55:11.467Z,17.70
2018-05-12T06:57:39.767Z,19.60
2018-05-12T07:00:08.077Z,18.10
2018-05-12T07:02:37.121Z,18.57
2018-05-12T07:05:05.419Z,19.63
2018-05-12T07:07:33.709Z,19.77
2018-05-12T07:10:01.988Z,21.83
2018-05-12T07:12:30.283Z,18.63
2018-05-12T07:14:59.311Z,19.40
2018-05-12T07:17:27.599Z,17.30
2018-05-12T07:19:56.016Z,17.60
2018-05-12T07:22:24.371Z,15.97
2018-05-12T07:24:52.676Z,17.43
2018-05-12T07:27:20.960Z,18.30
2018-05-12T07:29:49.231Z,19.23
2018-05-12T07:32:18.293Z,20.97
2018-05-12T07:34:46.559Z,22.30
2018-05-12T07:37:14.854Z,22.87
2018-05-12T07:39:43.135Z,23.80
2018-05-12T07:42:12.193Z,23.00
2018-05-12T07:44:40.479Z,23.80
2018-05-12T07:47:08.885Z,24.10
2018-05-12T07:49:37.161Z,23.77
2018-05-12T07:52:05.451Z,23.07
2018-05-12T07:54:33.756Z,24.20
2018-05-12T07:57:02.115Z,23.67
2018-05-12T07:59:30.324Z,22.03
2018-05-12T08:01:58.631Z,23.60
2018-05-12T08:04:26.927Z,23.50
2018-05-12T08:06:55.203Z,24.10
2018-05-12T08:09:23.496Z,22.37
2018-05-12T08:11:52.539Z,23.43
2018-05-12T08:14:20.827Z,20.33
2018-05-12T08:16:50.069Z,22.17
2018-05-12T08:19:18.426Z,23.47
2018-05-12T08:21:46.691Z,22.67
2018-05-12T08:24:14.987Z,22.27
2018-05-12T08:26:44.091Z,24.53
2018-05-12T08:29:13.164Z,23.33
2018-05-12T08:31:41.420Z,21.57
2018-05-12T08:34:09.697Z,21.93
2018-05-12T08:36:37.999Z,19.47
2018-05-12T08:39:06.388Z,20.63
2018-05-12T08:41:34.700Z,21.97
2018-05-12T08:44:02.986Z,22.50
2018-05-12T08:46:31.287Z,20.73
2018-05-12T08:49:00.375Z,21.97
2018-05-12T08:51:28.663Z,22.53
2018-05-12T08:53:56.983Z,22.43
2018-05-12T08:56:25.263Z,21.90
2018-05-12T08:58:53.542Z,21.80
2018-05-12T09:01:22.579Z,20.97
2018-05-12T09:03:50.868Z,21.53
2018-05-12T09:06:19.458Z,22.53
2018-05-12T09:08:47.728Z,22.47
2018-05-12T09:11:16.025Z,21.27
2018-05-12T09:13:44.396Z,18.30
2018-05-12T09:16:12.667Z,20.33
2018-05-12T09:18:41.764Z,22.53
2018-05-12T09:21:10.840Z,19.70
2018-05-12T09:23:39.115Z,18.43
2018-05-12T09:26:07.403Z,20.10
2018-05-12T09:28:35.770Z,18.70
2018-05-12T09:31:04.080Z,19.13
2018-05-12T09:33:33.148Z,18.07
2018-05-12T09:36:01.531Z,18.47
2018-05-12T09:38:29.841Z,20.07
2018-05-12T09:40:58.895Z,20.43
2018-05-12T09:43:27.276Z,21.47
2018-05-12T09:45:57.071Z,20.30
2018-05-12T09:48:25.371Z,17.50
2018-05-12T09:50:54.431Z,22.73
2018-05-12T09:53:22.755Z,19.50
2018-05-12T09:55:51.836Z,18.70
2018-05-12T09:58:20.124Z,17.47
2018-05-12T10:00:48.405Z,18.73
2018-05-12T10:03:16.726Z,18.00
2018-05-12T10:05:45.011Z,17.90
2018-05-12T10:08:13.296Z,18.40
2018-05-12T10:10:41.587Z,16.73
2018-05-12T10:13:10.132Z,18.20
2018-05-12T10:15:39.136Z,17.00
2018-05-12T10:18:07.414Z,15.73
2018-05-12T10:20:35.721Z,17.13
2018-05-12T10:23:04.007Z,15.50
2018-05-12T10:25:33.067Z,17.40
2018-05-12T10:28:01.363Z,17.87
2018-05-12T10:30:29.648Z,17.80
2018-05-12T10:32:57.932Z,18.00
2018-05-12T10:35:27.007Z,18.10
2018-05-12T10:37:55.296Z,19.90
2018-05-12T10:40:23.599Z,20.13
2018-05-12T10:42:51.947Z,21.63
2018-05-12T10:45:20.222Z,21.07
2018-05-12T10:47:48.525Z,20.43
2018-05-12T10:50:17.608Z,22.33
2018-05-12T10:52:45.970Z,21.27
2018-05-12T10:55:15.071Z,20.90
2018-05-12T10:57:44.131Z,24.00
2018-05-12T11:00:12.439Z,22.40
2018-05-12T11:02:40.826Z,24.30
2018-05-12T11:05:09.104Z,24.10
2018-05-12T11:07:37.471Z,22.77
2018-05-12T11:10:05.828Z,19.37
2018-05-12T11:12:34.132Z,18.33
2018-05-12T11:15:02.415Z,17.43
2018-05-12T11:17:30.696Z,18.10
2018-05-12T11:19:59.003Z,19.03
2018-05-12T11:22:27.295Z,20.47
2018-05-12T11:24:55.582Z,23.53
2018-05-12T11:27:23.917Z,22.07
2018-05-12T11:29:52.195Z,23.23
2018-05-12T11:32:21.263Z,24.50
2018-05-12T11:34:50.368Z,25.67
2018-05-12T11:37:19.423Z,25.50
2018-05-12T11:39:47.724Z,24.40
2018-05-12T11:42:16.099Z,22.13
2018-05-12T11:44:44.568Z,20.50
2018-05-12T11:47:14.282Z,23.50
2018-05-12T11:49:42.582Z,21.60
2018-05-12T11:52:10.860Z,24.77
2018-05-12T11:54:39.928Z,27.63
2018-05-12T11:57:08.238Z,26.57
2018-05-12T11:59:36.495Z,24.83
2018-05-12T12:02:04.791Z,24.17
2018-05-12T12:04:33.880Z,24.20
2018-05-12T12:07:02.241Z,24.60
2018-05-12T12:09:30.525Z,22.77
2018-05-12T12:12:00.331Z,27.23
2018-05-12T12:14:28.623Z,26.83
2018-05-12T12:16:56.916Z,27.93
2018-05-12T12:19:25.961Z,29.50
2018-05-12T12:21:54.227Z,27.50
2018-05-12T12:24:22.544Z,26.67
2018-05-12T12:26:50.843Z,26.30
2018-05-12T12:29:19.141Z,25.23
2018-05-12T12:31:47.415Z,25.13
2018-05-12T12:34:15.699Z,24.27
2018-05-12T12:36:44.002Z,25.77
2018-05-12T12:39:12.308Z,24.13
2018-05-12T12:41:41.381Z,24.83
2018-05-12T12:44:09.699Z,23.70
2018-05-12T12:46:38.057Z,25.60
2018-05-12T12:49:07.169Z,25.50
2018-05-12T12:51:36.324Z,25.80
2018-05-12T12:54:05.320Z,26.50
2018-05-12T12:56:33.591Z,24.00
2018-05-12T12:59:01.924Z,24.10
2018-05-12T13:01:30.201Z,26.57
2018-05-12T13:03:58.499Z,28.83
2018-05-12T13:06:26.799Z,27.10
2018-05-12T13:08:55.183Z,26.77
2018-05-12T13:11:23.460Z,23.43
2018-05-12T13:13:51.747Z,23.83
2018-05-12T13:16:20.851Z,23.03
2018-05-12T13:18:49.911Z,21.40
2018-05-12T13:21:18.215Z,24.87
2018-05-12T13:23:46.499Z,24.10
2018-05-12T13:26:14.779Z,26.73
2018-05-12T13:28:43.051Z,23.47
2018-05-12T13:31:11.331Z,21.73
2018-05-12T13:33:39.703Z,23.60
2018-05-12T13:36:08.051Z,24.57
2018-05-12T13:38:36.338Z,24.40
2018-05-12T13:41:04.621Z,20.70
2018-05-12T13:43:32.934Z,21.90
2018-05-12T13:46:01.977Z,23.00
2018-05-12T13:48:30.275Z,23.10
2018-05-12T13:50:58.551Z,22.20
2018-05-12T13:53:26.825Z,22.67
2018-05-12T13:55:55.240Z,23.27
2018-05-12T13:58:24.159Z,24.30
2018-05-12T14:00:52.450Z,21.90
2018-05-12T14:03:20.766Z,25.23
2018-05-12T14:05:49.847Z,26.40
2018-05-12T14:08:18.129Z,26.30
2018-05-12T14:10:47.192Z,27.90
2018-05-12T14:13:15.483Z,29.67
2018-05-12T14:15:43.748Z,28.43
2018-05-12T14:18:12.039Z,27.27
2018-05-12T14:20:40.419Z,26.27
2018-05-12T14:23:08.704Z,26.83
2018-05-12T14:25:37.773Z,23.80
2018-05-12T14:28:06.050Z,27.70
2018-05-12T14:30:34.319Z,26.73
2018-05-12T14:33:03.515Z,27.37
2018-05-12T14:35:31.920Z,27.10
2018-05-12T14:38:00.204Z,26.77
2018-05-12T14:40:29.294Z,25.27
2018-05-12T14:42:58.371Z,27.30
2018-05-12T14:45:28.171Z,25.23
2018-05-12T14:47:56.471Z,26.23
2018-05-12T14:50:24.754Z,25.30
2018-05-12T14:52:53.840Z,24.60
2018-05-12T14:55:22.156Z,29.07
2018-05-12T14:57:51.193Z,27.27
2018-05-12T15:00:19.584Z,27.60
2018-05-12T15:02:47.981Z,25.47
2018-05-12T15:05:16.386Z,27.30
2018-05-12T15:07:45.423Z,26.00
2018-05-12T15:10:14.496Z,25.73
2018-05-12T15:12:42.787Z,26.87
2018-05-12T15:15:11.059Z,26.20
2018-05-12T15:17:39.366Z,22.77
2018-05-12T15:20:07.648Z,24.20
2018-05-12T15:22:36.024Z,25.60
2018-05-12T15:25:04.326Z,22.67
2018-05-12T15:27:33.364Z,23.87
2018-05-12T15:30:01.760Z,24.47
2018-05-12T15:32:30.056Z,23.97
2018-05-12T15:34:58.359Z,23.53
2018-05-12T15:37:26.661Z,22.97
2018-05-12T15:39:54.972Z,24.00
2018-05-12T15:42:23.278Z,22.23
2018-05-12T15:44:51.644Z,22.60
2018-05-12T15:47:19.981Z,22.13
2018-05-12T15:49:48.345Z,22.40
2018-05-12T15:52:16.574Z,21.83
2018-05-12T15:54:44.959Z,21.97
2018-05-12T15:57:13.231Z,20.63
2018-05-12T15:59:41.529Z,19.43
2018-05-12T16:02:10.608Z,22.03
2018-05-12T16:04:39.672Z,20.77
2018-05-12T16:07:07.970Z,21.70
2018-05-12T16:09:36.272Z,18.57
2018-05-12T16:12:05.315Z,22.13
2018-05-12T16:14:33.645Z,21.17
2018-05-12T16:17:02.715Z,20.40
2018-05-12T16:19:31.008Z,18.47
2018-05-12T16:22:00.796Z,20.57
2018-05-12T16:24:29.103Z,18.07
2018-05-12T16:26:58.174Z,18.70
2018-05-12T16:29:26.476Z,19.87
2018-05-12T16:31:55.573Z,19.60
2018-05-12T16:34:24.621Z,18.30
2018-05-12T16:36:52.907Z,21.33
2018-05-12T16:39:22.015Z,21.40
2018-05-12T16:41:50.324Z,20.50
2018-05-12T16:44:18.643Z,19.87
2018-05-12T16:46:46.939Z,20.80
2018-05-12T16:49:15.224Z,20.07
2018-05-12T16:51:43.520Z,19.50
2018-05-12T16:54:12.617Z,21.13
2018-05-12T16:56:41.676Z,20.80
2018-05-12T16:59:10.031Z,19.17
2018-05-12T17:01:38.339Z,19.03
2018-05-12T17:04:06.719Z,20.20
2018-05-12T17:06:35.123Z,21.90
2018-05-12T17:09:03.323Z,18.40
2018-05-12T17:11:31.615Z,19.77
2018-05-12T17:13:59.944Z,19.83
2018-05-12T17:16:28.235Z,20.50
2018-05-12T17:18:56.529Z,19.90
2018-05-12T17:21:24.811Z,20.20
2018-05-12T17:23:53.217Z,20.30
2018-05-12T17:26:22.320Z,20.03
2018-05-12T17:28:50.644Z,22.00
2018-05-12T17:31:18.930Z,19.03
2018-05-12T17:33:47.279Z,19.83
2018-05-12T17:36:16.332Z,20.80
2018-05-12T17:38:44.643Z,19.47
2018-05-12T17:41:13.723Z,20.00
2018-05-12T17:43:42.007Z,19.63
2018-05-12T17:46:10.276Z,19.57
2018-05-12T17:48:38.668Z,20.10
2018-05-12T17:51:07.740Z,21.57
2018-05-12T17:53:36.035Z,22.03
2018-05-12T17:56:05.111Z,21.90
2018-05-12T17:58:33.399Z,19.80
2018-05-12T18:01:01.782Z,22.60
2018-05-12T18:03:30.081Z,22.10
2018-05-12T18:05:59.135Z,22.90
2018-05-12T18:08:27.415Z,21.67
2018-05-12T18:10:56.391Z,21.83
2018-05-12T18:13:24.671Z,21.33
2018-05-12T18:15:52.971Z,22.73
2018-05-12T18:18:22.047Z,22.80
2018-05-12T18:20:50.344Z,22.80
2018-05-12T18:23:18.726Z,22.43
2018-05-12T18:25:47.819Z,20.87
2018-05-12T18:28:16.110Z,21.13
2018-05-12T18:30:45.143Z,21.53
2018-05-12T18:33:14.414Z,23.23
2018-05-12T18:35:42.709Z,21.80
2018-05-12T18:38:14.064Z,22.00
2018-05-12T18:40:42.355Z,21.80
2018-05-12T18:43:10.639Z,24.20
2018-05-12T18:45:38.966Z,23.03
2018-05-12T18:48:08.028Z,22.60
2018-05-12T18:50:36.389Z,22.93
2018-05-12T18:53:04.604Z,22.10
2018-05-12T18:55:33.644Z,24.83
2018-05-12T18:58:01.977Z,23.53
2018-05-12T19:00:30.252Z,24.03
2018-05-12T19:02:58.589Z,24.27
2018-05-12T19:05:27.697Z,24.03
2018-05-12T19:07:55.992Z,26.67
2018-05-12T19:10:24.275Z,23.10
2018-05-12T19:12:52.556Z,24.63
2018-05-12T19:15:20.860Z,24.10
2018-05-12T19:17:49.172Z,25.83
2018-05-12T19:20:17.516Z,27.57
2018-05-12T19:22:46.552Z,25.23
2018-05-12T19:25:14.904Z,24.80
2018-05-12T19:27:43.224Z,24.70
2018-05-12T19:30:12.293Z,25.53
2018-05-12T19:32:40.636Z,23.70
2018-05-12T19:35:09.663Z,25.90
2018-05-12T19:37:38.804Z,29.63
2018-05-12T19:40:08.008Z,27.13
2018-05-12T19:42:37.084Z,26.50
2018-05-12T19:45:05.376Z,23.90
2018-05-12T19:47:33.675Z,26.57
2018-05-12T19:50:02.033Z,26.47
2018-05-12T19:52:31.087Z,25.03
2018-05-12T19:54:59.389Z,24.40
2018-05-12T19:57:28.403Z,27.90
2018-05-12T19:59:57.483Z,23.97
2018-05-12T20:02:25.821Z,24.60
2018-05-12T20:04:54.160Z,25.60
2018-05-12T20:07:22.507Z,25.00
2018-05-12T20:09:50.860Z,25.97
2018-05-12T20:12:22.039Z,24.97
2018-05-12T20:14:51.107Z,23.50
2018-05-12T20:17:20.219Z,25.77
2018-05-12T20:19:50.013Z,24.87
2018-05-12T20:22:18.336Z,23.63
2018-05-12T20:24:46.686Z,24.77
2018-05-12T20:27:15.065Z,24.03
2018-05-12T20:29:44.324Z,23.93
2018-05-12T20:32:12.603Z,26.57
2018-05-12T20:34:41.688Z,24.67
2018-05-12T20:37:09.995Z,24.00
2018-05-12T20:39:38.290Z,23.30
2018-05-12T20:42:06.603Z,22.53
2018-05-12T20:44:34.907Z,22.40
2018-05-12T20:47:03.196Z,22.10
2018-05-12T20:49:32.318Z,23.47
2018-05-12T20:52:00.683Z,23.67
2018-05-12T20:54:28.970Z,23.60
2018-05-12T20:56:57.316Z,24.20
2018-05-12T20:59:28.232Z,21.40
2018-05-12T21:01:57.471Z,23.73
2018-05-12T21:04:25.891Z,22.30
2018-05-12T21:06:54.507Z,22.70
2018-05-12T21:09:22.978Z,20.63
2018-05-12T21:11:51.295Z,22.70
2018-05-12T21:14:19.683Z,20.93
2018-05-12T21:16:48.665Z,21.43
2018-05-12T21:19:17.027Z,20.77
2018-05-12T21:21:45.823Z,21.97
2018-05-12T21:24:14.102Z,20.67
2018-05-12T21:26:42.383Z,21.33
2018-05-12T21:29:10.687Z,22.87
2018-05-12T21:31:39.768Z,19.97
2018-05-12T21:34:08.064Z,21.50
2018-05-12T21:36:37.116Z,21.43
2018-05-12T21:39:05.437Z,20.07
2018-05-12T21:41:34.488Z,21.60
2018-05-12T21:44:02.758Z,20.73
2018-05-12T21:46:31.066Z,20.90
2018-05-12T21:48:59.334Z,20.13
2018-05-12T21:51:27.625Z,20.47
2018-05-12T21:53:55.918Z,22.50
2018-05-12T21:56:24.959Z,20.37
2018-05-12T21:58:53.334Z,20.60
2018-05-12T22:01:21.588Z,20.87
2018-05-12T22:03:49.920Z,20.47
2018-05-12T22:06:18.231Z,21.10
2018-05-12T22:08:46.536Z,19.73
2018-05-12T22:11:14.826Z,21.47
2018-05-12T22:13:43.108Z,20.00
2018-05-12T22:16:11.425Z,19.67
2018-05-12T22:18:39.928Z,21.07
2018-05-12T22:21:08.199Z,19.07
2018-05-12T22:23:36.501Z,20.13
2018-05-12T22:26:04.810Z,19.97
2018-05-12T22:28:33.187Z,18.40
2018-05-12T22:31:02.410Z,20.13
2018-05-12T22:33:30.711Z,21.07
2018-05-12T22:35:59.049Z,20.60
2018-05-12T22:38:28.118Z,18.33
2018-05-12T22:40:56.692Z,20.87
2018-05-12T22:43:25.003Z,20.30
2018-05-12T22:45:54.079Z,19.93
2018-05-12T22:48:22.343Z,19.63
2018-05-12T22:50:50.626Z,20.83
2018-05-12T22:53:18.929Z,19.23
2018-05-12T22:55:48.013Z,20.27
2018-05-12T22:58:16.319Z,19.60
2018-05-12T23:00:45.372Z,18.70
2018-05-12T23:03:13.644Z,18.63
2018-05-12T23:05:41.976Z,19.67
2018-05-12T23:08:11.142Z,18.53
2018-05-12T23:10:39.443Z,19.70
2018-05-12T23:13:07.723Z,19.93
2018-05-12T23:15:36.032Z,19.53
2018-05-12T23:18:04.357Z,19.00
2018-05-12T23:20:33.452Z,18.80
2018-05-12T23:23:01.750Z,19.63
2018-05-12T23:25:30.035Z,19.07
2018-05-12T23:27:58.364Z,20.00
2018-05-12T23:30:28.202Z,18.20
2018-05-12T23:32:56.472Z,19.47
2018-05-12T23:35:24.747Z,19.37
2018-05-12T23:37:53.820Z,20.00
2018-05-12T23:40:22.138Z,18.80
2018-05-12T23:42:51.194Z,19.53
2018-05-12T23:45:19.497Z,20.80
2018-05-12T23:47:48.571Z,20.17
2018-05-12T23:50:16.867Z,19.73
2018-05-12T23:52:45.183Z,20.17
2018-05-12T23:55:13.498Z,22.73
2018-05-12T23:57:41.800Z,19.93
